Time;durP1;ratioP1;P1;durP2;ratioP2;P2;SDS_P1;SDS_P2;PMS_P1;PMS_P2;Temp;Humidity;BMP_temperature;BMP_pressure;BME280_temperature;BME280_humidity;BME280_pressure;Samples;Min_cycle;Max_cycle;Signal;HPM_P1;HPM_P2
2021/06/17 04:01:44;;;;;;;5.90;5.40;;;20.30;99.90;;;;;;5354546;23;20524;-68
2021/06/17 04:04:11;;;;;;;5.87;5.37;;;20.30;99.90;;;;;;4944388;29;20473;-69
2021/06/17 04:06:39;;;;;;;7.50;6.20;;;20.40;99.90;;;;;;4943452;28;20561;-68
2021/06/17 04:09:06;;;;;;;6.87;6.33;;;20.40;99.90;;;;;;4943357;29;21001;-69
2021/06/17 04:11:33;;;;;;;6.03;5.63;;;20.50;99.90;;;;;;4941208;29;21053;-68
2021/06/17 04:14:00;;;;;;;5.97;5.67;;;20.50;99.90;;;;;;4935943;29;20490;-68
2021/06/17 04:16:29;;;;;;;6.07;5.77;;;20.50;99.90;;;;;;4937419;29;20577;-68
2021/06/17 04:18:58;;;;;;;6.53;6.13;;;20.60;99.90;;;;;;4937730;29;20934;-67
2021/06/17 04:21:26;;;;;;;6.17;5.97;;;20.60;99.90;;;;;;4934998;29;20509;-68
2021/06/17 04:23:56;;;;;;;6.27;5.87;;;20.80;99.90;;;;;;4920200;29;20462;-68
2021/06/17 04:26:24;;;;;;;5.30;5.10;;;21.40;99.90;;;;;;4916746;29;20489;-68
2021/06/17 04:28:54;;;;;;;6.23;5.90;;;22.00;99.90;;;;;;4916836;29;20478;-67
2021/06/17 04:31:21;;;;;;;6.37;5.97;;;22.60;99.90;;;;;;4916640;29;20493;-67
2021/06/17 04:33:49;;;;;;;6.10;5.50;;;23.20;99.90;;;;;;4916304;29;20470;-67
2021/06/17 04:36:17;;;;;;;5.90;5.70;;;23.70;99.90;;;;;;4916162;29;20478;-67
2021/06/17 04:38:47;;;;;;;5.37;5.17;;;24.10;99.90;;;;;;4916578;29;20466;-67
2021/06/17 04:41:14;;;;;;;5.77;5.27;;;24.50;99.90;;;;;;4916240;29;21003;-66
2021/06/17 04:43:40;;;;;;;5.60;5.30;;;24.80;99.90;;;;;;4916508;29;20477;-68
2021/06/17 04:46:09;;;;;;;6.27;5.80;;;25.20;99.90;;;;;;4915717;29;20473;-67
2021/06/17 04:48:38;;;;;;;6.10;5.70;;;25.30;99.90;;;;;;4916715;29;20474;-68
2021/06/17 04:51:07;;;;;;;5.47;5.07;;;25.60;99.90;;;;;;4915034;29;20494;-68
2021/06/17 04:53:36;;;;;;;5.37;5.17;;;25.80;99.90;;;;;;4916357;29;20476;-68
2021/06/17 04:56:03;;;;;;;5.37;5.20;;;26.00;99.90;;;;;;4916055;29;20535;-66
2021/06/17 04:58:31;;;;;;;6.40;6.10;;;26.00;99.90;;;;;;4915912;29;20978;-66
2021/06/17 05:00:59;;;;;;;6.00;5.60;;;26.00;99.90;;;;;;4916137;29;20579;-66
2021/06/17 05:03:25;;;;;;;5.90;5.40;;;26.20;99.90;;;;;;4915744;29;20828;-67
2021/06/17 05:05:53;;;;;;;6.83;6.23;;;26.50;99.90;;;;;;4915981;29;20479;-67
2021/06/17 05:11:05;;;;;;;6.27;5.97;;;27.10;99.90;;;;;;4915700;29;20474;-67
2021/06/17 05:13:32;;;;;;;5.77;5.57;;;27.30;99.90;;;;;;4930505;29;20985;-67
2021/06/17 05:16:01;;;;;;;6.50;6.10;;;27.40;99.90;;;;;;4934676;29;20488;-67
2021/06/17 05:18:28;;;;;;;6.60;6.17;;;27.70;99.70;;;;;;4935173;29;20466;-68
2021/06/17 05:20:56;;;;;;;6.07;5.97;;;27.80;99.20;;;;;;4934329;29;20496;-66
2021/06/17 05:23:24;;;;;;;6.60;6.30;;;28.00;98.90;;;;;;4934935;29;20465;-67
2021/06/17 05:25:51;;;;;;;6.23;5.83;;;28.10;98.70;;;;;;4934362;29;20462;-67
2021/06/17 05:28:22;;;;;;;5.80;5.53;;;28.10;98.60;;;;;;4934854;29;20463;-68
2021/06/17 05:30:50;;;;;;;6.17;5.80;;;28.40;98.10;;;;;;4935054;29;20885;-67
2021/06/17 05:33:17;;;;;;;6.90;6.50;;;28.60;97.50;;;;;;4934537;29;20473;-67
2021/06/17 05:35:46;;;;;;;6.67;6.23;;;28.50;97.60;;;;;;4934944;29;20858;-67
2021/06/17 05:38:12;;;;;;;6.87;6.37;;;28.50;97.30;;;;;;4933764;29;20504;-67
2021/06/17 05:40:39;;;;;;;6.40;6.17;;;28.50;97.40;;;;;;4935238;29;20554;-68
2021/06/17 05:43:06;;;;;;;6.40;6.20;;;28.60;97.10;;;;;;4934229;29;20476;-67
2021/06/17 05:45:34;;;;;;;7.17;6.90;;;28.70;97.40;;;;;;4934739;29;20463;-67
2021/06/17 05:48:00;;;;;;;7.17;6.87;;;28.60;97.30;;;;;;4934362;29;20487;-68
2021/06/17 05:50:27;;;;;;;6.57;6.27;;;28.60;97.10;;;;;;4934635;29;20499;-67
2021/06/17 05:52:54;;;;;;;7.47;7.17;;;28.60;97.30;;;;;;4933500;29;20467;-67
2021/06/17 05:55:20;;;;;;;7.37;7.03;;;28.40;97.40;;;;;;4935057;29;20519;-67
2021/06/17 05:57:47;;;;;;;8.13;7.77;;;28.50;97.60;;;;;;4934628;29;20955;-67
2021/06/17 06:00:15;;;;;;;7.40;7.03;;;29.00;97.80;;;;;;4937796;29;20472;-67
2021/06/17 06:02:44;;;;;;;8.03;7.23;;;29.50;96.80;;;;;;4930687;28;20559;-67
2021/06/17 06:05:11;;;;;;;7.50;7.00;;;29.70;96.40;;;;;;4938183;29;20471;-67
2021/06/17 06:07:39;;;;;;;7.20;6.87;;;30.20;95.80;;;;;;4937435;29;20847;-69
2021/06/17 06:10:07;;;;;;;7.63;7.17;;;30.60;94.90;;;;;;4938419;29;20495;-68
2021/06/17 06:12:34;;;;;;;7.23;6.80;;;30.70;94.90;;;;;;4937824;29;20472;-69
2021/06/17 06:15:00;;;;;;;7.83;7.13;;;30.80;94.40;;;;;;4937952;29;20496;-69
2021/06/17 06:17:27;;;;;;;7.37;6.97;;;31.10;93.80;;;;;;4937671;29;20471;-69
2021/06/17 06:19:55;;;;;;;8.63;7.80;;;31.20;93.70;;;;;;4937992;29;20877;-67
2021/06/17 06:22:21;;;;;;;8.10;7.47;;;31.40;93.10;;;;;;4936913;29;20492;-67
2021/06/17 06:24:49;;;;;;;8.23;7.83;;;31.30;92.80;;;;;;4938034;29;20472;-65
2021/06/17 06:27:16;;;;;;;7.33;6.93;;;31.00;92.50;;;;;;4937592;29;20473;-65
2021/06/17 06:29:43;;;;;;;7.37;7.17;;;30.80;92.90;;;;;;4937914;29;20983;-67
2021/06/17 06:32:10;;;;;;;7.97;7.57;;;30.30;93.30;;;;;;4937319;29;20493;-65
2021/06/17 06:34:37;;;;;;;7.90;7.60;;;30.20;94.00;;;;;;4925158;29;20493;-65
2021/06/17 06:37:05;;;;;;;8.83;8.23;;;30.30;93.90;;;;;;4918350;29;20473;-65
2021/06/17 06:39:32;;;;;;;7.90;7.47;;;30.70;93.60;;;;;;4918763;29;20481;-65
2021/06/17 06:41:59;;;;;;;8.40;7.90;;;31.20;93.10;;;;;;4918319;29;20826;-66
2021/06/17 06:44:26;;;;;;;8.17;7.57;;;31.20;92.70;;;;;;4918570;29;20807;-65
2021/06/17 06:46:54;;;;;;;7.83;7.53;;;31.20;93.00;;;;;;4918245;29;20947;-65
2021/06/17 06:49:21;;;;;;;7.67;7.37;;;31.30;92.70;;;;;;4918282;29;20524;-66
2021/06/17 06:51:47;;;;;;;8.40;8.00;;;31.60;92.90;;;;;;4917791;29;20488;-66
2021/06/17 06:54:18;;;;;;;8.43;7.70;;;32.00;91.80;;;;;;4918144;29;20474;-66
2021/06/17 06:56:46;;;;;;;8.27;7.87;;;32.40;91.60;;;;;;4917772;29;20873;-66
2021/06/17 06:59:13;;;;;;;7.60;7.30;;;32.20;91.10;;;;;;4918219;29;20469;-65
2021/06/17 07:01:39;;;;;;;8.10;7.70;;;31.90;91.50;;;;;;4917627;29;20910;-66
2021/06/17 07:04:06;;;;;;;8.50;8.00;;;31.90;91.60;;;;;;4918424;29;20503;-65
2021/06/17 07:06:34;;;;;;;7.47;7.27;;;31.60;91.80;;;;;;4917920;29;20810;-66
2021/06/17 07:09:00;;;;;;;8.80;8.20;;;32.00;92.20;;;;;;4917914;29;20466;-67
2021/06/17 07:11:28;;;;;;;8.53;8.20;;;32.00;91.90;;;;;;4917413;29;20485;-66
2021/06/17 07:13:55;;;;;;;9.10;8.40;;;32.00;91.80;;;;;;4935448;29;20479;-66
2021/06/17 07:16:21;;;;;;;7.97;7.70;;;32.30;91.70;;;;;;4936528;29;20500;-66
2021/06/17 07:18:48;;;;;;;7.87;7.50;;;32.60;91.20;;;;;;4937009;29;20474;-66
2021/06/17 07:21:16;;;;;;;7.63;7.20;;;33.00;90.60;;;;;;4935737;29;20504;-66
2021/06/17 07:23:45;;;;;;;8.33;7.93;;;33.10;90.50;;;;;;4936560;29;20866;-68
2021/06/17 07:26:12;;;;;;;7.47;7.07;;;33.10;90.20;;;;;;4936405;29;20799;-68
2021/06/17 07:28:40;;;;;;;7.83;7.53;;;33.20;90.50;;;;;;4936438;29;20465;-68
2021/06/17 07:31:07;;;;;;;7.97;7.67;;;33.70;90.10;;;;;;4936443;29;20525;-68
2021/06/17 07:33:33;;;;;;;7.93;7.63;;;33.90;89.40;;;;;;4936390;29;20474;-69
2021/06/17 07:36:00;;;;;;;9.07;8.50;;;33.90;88.70;;;;;;4935540;29;20494;-68
2021/06/17 07:38:27;;;;;;;9.10;8.63;;;33.50;88.90;;;;;;4936341;29;20477;-68
2021/06/17 07:40:53;;;;;;;8.40;8.00;;;33.40;89.40;;;;;;4936096;29;20485;-67
2021/06/17 07:43:20;;;;;;;8.00;7.70;;;33.50;89.60;;;;;;4936067;29;20470;-68
2021/06/17 07:45:48;;;;;;;8.53;8.13;;;33.40;89.50;;;;;;4936552;29;20462;-68
2021/06/17 07:48:15;;;;;;;8.17;7.87;;;33.20;89.70;;;;;;4936337;29;20477;-68
2021/06/17 07:50:42;;;;;;;8.30;8.00;;;33.30;90.00;;;;;;4936184;29;20489;-68
2021/06/17 07:53:09;;;;;;;8.00;7.70;;;33.30;89.20;;;;;;4935104;29;20465;-66
2021/06/17 07:55:36;;;;;;;9.27;8.77;;;33.30;90.20;;;;;;4936298;29;20501;-67
2021/06/17 07:58:04;;;;;;;9.30;8.90;;;33.70;88.60;;;;;;4935750;29;20514;-67
2021/06/17 08:00:30;;;;;;;9.07;8.47;;;34.00;87.70;;;;;;4935912;29;21025;-67
2021/06/17 08:02:59;;;;;;;8.40;8.00;;;33.90;87.60;;;;;;4918420;29;20760;-66
2021/06/17 08:05:27;;;;;;;8.20;7.80;;;33.90;87.40;;;;;;4917288;29;20462;-66
2021/06/17 08:07:53;;;;;;;8.50;8.07;;;33.70;87.80;;;;;;4916411;29;20920;-66
2021/06/17 08:10:21;;;;;;;8.93;8.63;;;33.60;88.80;;;;;;4917344;29;20479;-67
2021/06/17 08:12:47;;;;;;;8.73;8.23;;;34.00;87.40;;;;;;4916443;29;20471;-66
2021/06/17 08:15:14;;;;;;;8.20;7.90;;;34.30;87.60;;;;;;4916980;29;20603;-66
2021/06/17 08:17:41;;;;;;;8.43;8.13;;;34.30;87.90;;;;;;4917126;29;20580;-67
2021/06/17 08:20:11;;;;;;;8.37;8.10;;;34.60;86.70;;;;;;4917184;29;20471;-68
2021/06/17 08:22:38;;;;;;;8.20;7.90;;;34.70;85.80;;;;;;4915539;29;20467;-67
2021/06/17 08:25:06;;;;;;;8.10;7.50;;;34.70;86.40;;;;;;4918320;29;20467;-67
2021/06/17 08:27:33;;;;;;;8.70;8.23;;;34.50;85.10;;;;;;4918799;29;20489;-66
2021/06/17 08:30:00;;;;;;;8.30;7.90;;;34.20;86.30;;;;;;4916932;29;20466;-66
2021/06/17 08:32:27;;;;;;;8.60;8.23;;;34.30;86.90;;;;;;4916208;29;20494;-66
2021/06/17 08:34:53;;;;;;;8.70;8.30;;;34.20;86.50;;;;;;4926164;29;20478;-66
2021/06/17 08:37:21;;;;;;;8.80;8.30;;;34.20;86.60;;;;;;4934661;29;20477;-67
2021/06/17 08:39:49;;;;;;;8.50;8.00;;;34.00;86.10;;;;;;4935285;29;20476;-66
2021/06/17 08:42:16;;;;;;;8.20;7.80;;;33.60;86.40;;;;;;4934980;29;20477;-66
2021/06/17 08:44:43;;;;;;;8.90;8.43;;;33.40;87.20;;;;;;4935612;29;20469;-66
2021/06/17 08:47:10;;;;;;;8.47;8.17;;;33.20;88.30;;;;;;4935068;29;20497;-66
2021/06/17 08:49:37;;;;;;;9.13;8.30;;;33.50;87.60;;;;;;4935182;29;20891;-66
2021/06/17 08:52:04;;;;;;;8.70;8.33;;;33.50;87.90;;;;;;4933845;29;20489;-66
2021/06/17 08:54:33;;;;;;;8.30;8.00;;;33.50;87.00;;;;;;4935340;29;20473;-66
2021/06/17 08:57:00;;;;;;;7.90;7.57;;;33.70;86.40;;;;;;4934669;29;20498;-66
2021/06/17 08:59:31;;;;;;;9.57;9.17;;;34.00;86.00;;;;;;4935234;29;20465;-66
2021/06/17 09:02:00;;;;;;;9.27;8.77;;;33.90;86.00;;;;;;4934450;29;21042;-67
2021/06/17 09:04:28;;;;;;;8.53;8.23;;;33.70;86.70;;;;;;4934815;29;20880;-67
2021/06/17 09:07:08;;;;;;;8.27;7.97;;;33.70;87.40;;;;;;4934447;28;20947;-66
2021/06/17 09:09:39;;;;;;;7.60;7.40;;;33.90;87.50;;;;;;4934996;29;20848;-66
2021/06/17 09:12:07;;;;;;;9.00;8.57;;;33.90;86.70;;;;;;4934386;29;21002;-67
2021/06/17 09:14:35;;;;;;;9.13;8.60;;;33.70;85.60;;;;;;4935126;29;20466;-66
2021/06/17 09:17:04;;;;;;;9.47;8.97;;;33.40;86.50;;;;;;4934737;29;20584;-66
2021/06/17 09:19:39;;;;;;;8.53;8.00;;;33.00;86.70;;;;;;4934601;29;20476;-66
2021/06/17 09:22:07;;;;;;;9.20;8.80;;;33.00;87.00;;;;;;4933724;29;20485;-66
2021/06/17 09:24:37;;;;;;;10.00;9.20;;;33.20;88.00;;;;;;4922142;29;20470;-66
2021/06/17 09:27:24;;;;;;;8.77;8.47;;;33.10;87.20;;;;;;4915710;29;20470;-65
2021/06/17 09:29:53;;;;;;;9.40;9.00;;;33.00;87.30;;;;;;4915667;29;20763;-66
2021/06/17 09:32:21;;;;;;;9.13;8.63;;;33.10;87.10;;;;;;4915644;29;20506;-66
2021/06/17 09:34:48;;;;;;;7.20;7.00;;;33.30;87.20;;;;;;4919404;29;20474;-66
2021/06/17 09:37:34;;;;;;;7.90;7.60;;;33.20;83.90;;;;;;4919072;29;20490;-66
2021/06/17 09:40:22;;;;;;;9.03;8.53;;;33.00;82.40;;;;;;4919581;29;20470;-66
2021/06/17 09:42:50;;;;;;;9.10;8.80;;;32.80;84.00;;;;;;4919558;29;20503;-68
2021/06/17 09:45:18;;;;;;;8.53;8.13;;;32.70;86.40;;;;;;4919878;29;20474;-69
2021/06/17 09:47:45;;;;;;;8.10;7.80;;;32.60;85.00;;;;;;4921274;29;20470;-68
2021/06/17 09:50:24;;;;;;;7.80;7.40;;;32.70;83.90;;;;;;4922351;29;20466;-68
2021/06/17 09:52:51;;;;;;;7.83;7.53;;;32.60;82.40;;;;;;4922961;29;20819;-70
2021/06/17 09:55:37;;;;;;;8.53;8.13;;;32.50;82.10;;;;;;4926170;29;20480;-69
2021/06/17 09:58:04;;;;;;;8.57;8.13;;;32.40;83.30;;;;;;4926851;29;20460;-69
2021/06/17 10:00:31;;;;;;;9.10;8.60;;;32.60;83.10;;;;;;4926393;29;20489;-66
2021/06/17 10:03:14;;;;;;;9.80;9.40;;;32.40;84.30;;;;;;4935519;28;20490;-67
2021/06/17 10:05:41;;;;;;;10.10;9.70;;;32.00;86.90;;;;;;4944048;29;20455;-68
2021/06/17 10:08:08;;;;;;;9.70;9.30;;;32.00;87.10;;;;;;4938086;29;20890;-68
2021/06/17 10:10:36;;;;;;;8.83;8.27;;;32.20;86.30;;;;;;4938297;29;20511;-68
2021/06/17 10:13:05;;;;;;;10.13;9.50;;;32.30;84.40;;;;;;4937863;29;20588;-68
2021/06/17 10:15:32;;;;;;;10.87;9.97;;;32.40;84.20;;;;;;4938009;29;21030;-67
2021/06/17 10:17:59;;;;;;;10.60;9.93;;;32.40;85.10;;;;;;4937895;29;20973;-67
2021/06/17 10:20:26;;;;;;;9.23;8.83;;;32.40;84.70;;;;;;4938365;29;20471;-68
2021/06/17 10:22:54;;;;;;;9.83;9.33;;;32.00;84.50;;;;;;4937324;29;20466;-67
2021/06/17 10:25:24;;;;;;;11.00;10.30;;;31.80;84.70;;;;;;4938267;29;20489;-67
2021/06/17 10:27:51;;;;;;;9.80;9.33;;;31.70;84.70;;;;;;4939750;29;20472;-66
2021/06/17 10:30:40;;;;;;;11.40;10.80;;;31.80;86.10;;;;;;4941261;29;20490;-67
2021/06/17 10:33:07;;;;;;;9.80;9.40;;;31.90;86.30;;;;;;4938535;29;20495;-66
2021/06/17 10:35:34;;;;;;;11.10;10.43;;;32.20;84.90;;;;;;4940490;29;20572;-65
2021/06/17 10:38:04;;;;;;;10.53;9.70;;;32.00;86.70;;;;;;4939478;29;20465;-65
2021/06/17 10:40:33;;;;;;;10.77;10.17;;;31.90;87.10;;;;;;4939916;29;20481;-67
2021/06/17 10:43:00;;;;;;;10.87;10.40;;;32.10;86.40;;;;;;4942362;29;20473;-68
2021/06/17 10:45:40;;;;;;;10.50;10.00;;;32.30;85.60;;;;;;4945981;29;20530;-68
2021/06/17 10:48:11;;;;;;;11.00;10.40;;;32.50;86.50;;;;;;4945799;29;20455;-68
2021/06/17 10:51:07;;;;;;;10.73;10.23;;;32.60;84.10;;;;;;4944622;29;20496;-66
2021/06/17 10:53:52;;;;;;;11.33;10.70;;;32.50;85.10;;;;;;4939411;29;20463;-67
2021/06/17 10:56:21;;;;;;;10.83;10.17;;;32.40;86.50;;;;;;4931949;29;20492;-68
2021/06/17 10:58:56;;;;;;;10.37;9.87;;;32.50;85.50;;;;;;4934265;29;20464;-68
2021/06/17 11:01:30;;;;;;;10.80;9.97;;;32.50;84.70;;;;;;4937385;29;20495;-67
2021/06/17 11:04:19;;;;;;;10.57;9.87;;;32.50;84.20;;;;;;4933708;29;20558;-68
2021/06/17 11:07:17;;;;;;;9.27;8.97;;;32.50;83.30;;;;;;4931595;29;20475;-67
2021/06/17 11:10:03;;;;;;;10.07;9.57;;;32.40;82.70;;;;;;4940601;29;20466;-67
2021/06/17 11:13:00;;;;;;;10.20;9.63;;;32.80;83.20;;;;;;4932327;29;20484;-67
2021/06/17 11:15:38;;;;;;;8.90;8.50;;;33.00;79.50;;;;;;4918424;29;20468;-67
2021/06/17 11:18:07;;;;;;;9.53;9.20;;;33.00;79.70;;;;;;4933208;29;20460;-66
2021/06/17 11:20:42;;;;;;;9.43;8.93;;;33.10;79.70;;;;;;4922564;29;20496;-66
2021/06/17 11:23:09;;;;;;;9.80;9.30;;;33.20;78.10;;;;;;4917018;29;20483;-66
2021/06/17 11:25:42;;;;;;;9.83;9.43;;;33.30;78.90;;;;;;4918545;29;20479;-66
2021/06/17 11:28:11;;;;;;;9.00;8.60;;;33.10;77.60;;;;;;4917596;29;20478;-67
2021/06/17 11:30:57;;;;;;;9.63;9.13;;;33.20;77.90;;;;;;4918022;29;20538;-68
2021/06/17 11:33:48;;;;;;;7.87;7.57;;;33.10;78.10;;;;;;4920563;29;20486;-68
2021/06/17 11:36:20;;;;;;;8.37;7.97;;;33.30;75.50;;;;;;4917856;29;20492;-68
2021/06/17 11:38:49;;;;;;;9.23;8.80;;;33.30;73.40;;;;;;4918570;29;20495;-66
2021/06/17 11:41:19;;;;;;;8.93;8.50;;;33.20;74.70;;;;;;4917601;29;20499;-67
2021/06/17 11:43:53;;;;;;;9.17;8.77;;;33.00;74.90;;;;;;4919076;29;21075;-67
2021/06/17 11:46:21;;;;;;;8.47;8.17;;;32.90;74.30;;;;;;4919479;29;20477;-67
2021/06/17 11:48:55;;;;;;;9.20;8.73;;;33.00;75.10;;;;;;4921302;29;20469;-66
2021/06/17 11:51:22;;;;;;;8.90;8.50;;;33.30;75.70;;;;;;4918085;29;20974;-66
2021/06/17 11:53:50;;;;;;;10.00;9.20;;;33.30;75.10;;;;;;4919434;29;20460;-70
2021/06/17 11:56:29;;;;;;;9.07;8.67;;;33.30;76.40;;;;;;4917688;29;20519;-67
2021/06/17 11:58:56;;;;;;;7.73;7.43;;;33.50;76.20;;;;;;4918179;29;20456;-68
2021/06/17 12:01:26;;;;;;;8.90;8.50;;;33.40;74.30;;;;;;4917880;29;20504;-68
2021/06/17 12:04:00;;;;;;;8.07;7.77;;;33.50;74.00;;;;;;4918602;29;20481;-68
2021/06/17 12:06:28;;;;;;;9.43;9.00;;;33.70;74.10;;;;;;4925021;29;20469;-67
2021/06/17 12:09:08;;;;;;;8.87;8.30;;;33.80;74.10;;;;;;4927159;29;20472;-67
2021/06/17 12:11:36;;;;;;;8.00;7.80;;;33.90;72.20;;;;;;4936538;29;20552;-67
2021/06/17 12:14:04;;;;;;;8.67;8.37;;;33.90;71.70;;;;;;4917432;29;20468;-67
2021/06/17 12:16:31;;;;;;;8.73;8.20;;;33.90;71.80;;;;;;4933114;29;20508;-67
2021/06/17 12:18:59;;;;;;;9.30;8.70;;;33.90;72.20;;;;;;4917856;29;20470;-67
2021/06/17 12:21:28;;;;;;;8.60;8.20;;;33.90;71.50;;;;;;4916572;29;20494;-67
2021/06/17 12:23:56;;;;;;;9.40;8.70;;;33.80;71.70;;;;;;4917062;29;20904;-64
2021/06/17 12:26:30;;;;;;;8.03;7.73;;;33.90;72.80;;;;;;4916567;29;20501;-66
2021/06/17 12:28:59;;;;;;;9.00;8.60;;;33.70;72.20;;;;;;4917493;29;20532;-67
2021/06/17 12:31:27;;;;;;;12.43;11.83;;;33.60;73.00;;;;;;4916764;29;20497;-67
2021/06/17 12:34:07;;;;;;;10.03;9.50;;;33.80;73.80;;;;;;4916685;29;20550;-67
2021/06/17 12:36:34;;;;;;;8.50;8.10;;;33.90;72.30;;;;;;4916025;29;20498;-67
2021/06/17 12:39:14;;;;;;;8.57;8.10;;;33.90;72.20;;;;;;4916786;29;20564;-68
2021/06/17 12:41:47;;;;;;;8.10;7.70;;;33.90;71.70;;;;;;4916786;29;20573;-66
2021/06/17 12:44:29;;;;;;;7.80;7.50;;;34.00;69.90;;;;;;4916542;29;20478;-66
2021/06/17 12:46:58;;;;;;;7.47;7.17;;;33.90;69.20;;;;;;4916192;29;20467;-66
2021/06/17 12:52:01;;;;;;;7.77;7.47;;;34.00;69.40;;;;;;4916453;29;21036;-68
2021/06/17 12:52:14;;;;;;;6.73;6.50;;;33.90;66.70;;;;;;4915037;29;20571;-68
2021/06/17 12:54:42;;;;;;;7.70;7.30;;;33.90;66.50;;;;;;4916669;29;20900;-69
2021/06/17 12:57:15;;;;;;;8.13;7.67;;;34.00;67.70;;;;;;4916263;29;20324;-70
2021/06/17 12:59:46;;;;;;;8.73;8.30;;;34.10;66.00;;;;;;4916603;29;20477;-69
2021/06/17 13:02:14;;;;;;;7.50;7.10;;;34.00;67.40;;;;;;4915694;29;20920;-69
2021/06/17 13:04:43;;;;;;;6.57;6.37;;;33.90;66.40;;;;;;4916944;29;20802;-69
2021/06/17 13:07:18;;;;;;;7.83;7.53;;;33.80;67.10;;;;;;4915305;29;20571;-68
2021/06/17 13:09:44;;;;;;;8.13;7.83;;;33.80;66.40;;;;;;4916536;29;20832;-69
2021/06/17 13:12:16;;;;;;;8.03;7.53;;;33.80;66.20;;;;;;4915884;29;20845;-69
2021/06/17 13:15:00;;;;;;;7.33;7.07;;;33.90;65.70;;;;;;4916088;29;20469;-69
2021/06/17 13:17:27;;;;;;;7.30;7.00;;;34.00;65.50;;;;;;4916133;29;20495;-69
2021/06/17 13:19:57;;;;;;;7.03;6.83;;;34.00;65.50;;;;;;4916337;29;20474;-67
2021/06/17 13:22:25;;;;;;;7.03;6.63;;;34.00;65.00;;;;;;4915260;29;20496;-66
2021/06/17 13:24:52;;;;;;;7.00;6.70;;;33.90;64.60;;;;;;4925622;28;20487;-69
2021/06/17 13:27:21;;;;;;;7.40;7.00;;;34.00;65.30;;;;;;4934741;29;20473;-67
2021/06/17 13:29:52;;;;;;;6.43;6.20;;;34.00;63.70;;;;;;4935418;29;20470;-65
2021/06/17 13:32:19;;;;;;;6.60;6.33;;;34.20;63.70;;;;;;4934637;29;20487;-65
2021/06/17 13:34:46;;;;;;;6.30;6.00;;;34.40;63.00;;;;;;4935294;29;20479;-65
2021/06/17 13:37:14;;;;;;;6.80;6.50;;;34.40;62.40;;;;;;4934102;29;20489;-69
2021/06/17 13:39:41;;;;;;;7.50;7.03;;;34.30;62.10;;;;;;4935434;29;20877;-68
2021/06/17 13:42:08;;;;;;;7.40;7.00;;;34.30;62.40;;;;;;4934482;29;20498;-68
2021/06/17 13:44:35;;;;;;;6.57;6.37;;;34.00;62.30;;;;;;4935036;29;20478;-69
2021/06/17 13:47:02;;;;;;;6.80;6.60;;;34.00;62.80;;;;;;4934845;29;20502;-69
2021/06/17 13:49:29;;;;;;;7.40;7.00;;;34.10;62.30;;;;;;4934941;29;20554;-69
2021/06/17 13:51:56;;;;;;;6.53;6.20;;;34.20;62.30;;;;;;4934600;29;20916;-68
2021/06/17 13:54:25;;;;;;;5.53;5.43;;;34.30;61.30;;;;;;4935272;29;20916;-69
2021/06/17 13:56:52;;;;;;;4.50;4.40;;;34.40;59.90;;;;;;4935048;29;20561;-68
2021/06/17 13:59:19;;;;;;;6.90;6.50;;;34.30;59.20;;;;;;4937369;29;20472;-67
2021/06/17 14:01:46;;;;;;;6.70;6.40;;;34.40;59.80;;;;;;4935924;29;20494;-67
2021/06/17 14:04:16;;;;;;;6.30;6.03;;;34.40;59.40;;;;;;4935125;29;20462;-67
2021/06/17 14:06:43;;;;;;;6.33;6.10;;;34.40;59.30;;;;;;4934372;28;21080;-69
2021/06/17 14:09:10;;;;;;;6.10;5.90;;;34.30;58.20;;;;;;4937935;29;20466;-69
2021/06/17 14:11:40;;;;;;;6.47;6.17;;;34.30;58.30;;;;;;4935011;29;20487;-69
2021/06/17 14:14:07;;;;;;;6.30;5.90;;;34.30;58.90;;;;;;4922017;29;20860;-69
2021/06/17 14:16:34;;;;;;;5.77;5.53;;;34.40;58.20;;;;;;4916621;29;20968;-68
2021/06/17 14:19:01;;;;;;;5.63;5.50;;;34.40;58.30;;;;;;4916118;29;20463;-69
2021/06/17 14:21:28;;;;;;;6.30;6.10;;;34.40;58.20;;;;;;4919413;29;20485;-68
2021/06/17 14:23:55;;;;;;;6.40;6.10;;;34.40;58.50;;;;;;4919309;29;20988;-66
2021/06/17 14:26:22;;;;;;;5.60;5.50;;;34.40;58.70;;;;;;4920134;29;20467;-67
2021/06/17 14:28:53;;;;;;;5.90;5.60;;;34.40;57.90;;;;;;4920350;29;20463;-66
2021/06/17 14:31:20;;;;;;;5.90;5.60;;;34.70;57.50;;;;;;4920403;29;21023;-67
2021/06/17 14:33:47;;;;;;;5.97;5.67;;;34.80;57.30;;;;;;4921208;29;20471;-67
2021/06/17 14:36:14;;;;;;;5.90;5.50;;;34.90;57.50;;;;;;4919048;29;20474;-69
2021/06/17 14:38:40;;;;;;;6.07;5.67;;;34.90;57.10;;;;;;4921204;29;20492;-69
2021/06/17 14:41:07;;;;;;;5.50;5.30;;;34.80;57.30;;;;;;4921306;29;20818;-69
2021/06/17 14:43:34;;;;;;;6.00;5.77;;;34.80;56.40;;;;;;4919126;29;20481;-69
2021/06/17 14:46:02;;;;;;;5.30;5.00;;;34.80;55.40;;;;;;4918947;29;20471;-68
2021/06/17 14:48:28;;;;;;;5.77;5.40;;;34.80;55.80;;;;;;4919253;29;20467;-66
2021/06/17 14:50:55;;;;;;;5.03;4.93;;;34.70;55.20;;;;;;4922709;29;20963;-70
2021/06/17 14:53:22;;;;;;;6.00;5.70;;;34.70;55.70;;;;;;4937966;29;20470;-66
2021/06/17 14:55:48;;;;;;;5.30;5.10;;;34.80;56.00;;;;;;4938322;29;20470;-68
2021/06/17 14:58:15;;;;;;;5.57;5.37;;;34.80;56.00;;;;;;4937638;29;20496;-67
2021/06/17 15:00:42;;;;;;;6.00;5.90;;;34.90;56.50;;;;;;4937728;29;20853;-68
2021/06/17 15:03:10;;;;;;;5.87;5.67;;;35.00;56.10;;;;;;4938167;29;20470;-69
2021/06/17 15:05:36;;;;;;;6.03;5.87;;;34.80;54.90;;;;;;4937664;29;20468;-69
2021/06/17 15:08:04;;;;;;;5.70;5.27;;;34.70;54.60;;;;;;4936907;28;20845;-70
2021/06/17 15:10:31;;;;;;;6.13;5.73;;;34.60;55.30;;;;;;4937895;29;20493;-69
2021/06/17 15:12:58;;;;;;;6.13;5.93;;;34.90;55.70;;;;;;4937290;29;20466;-69
2021/06/17 15:15:25;;;;;;;6.13;5.93;;;34.90;54.80;;;;;;4938024;29;20475;-69
2021/06/17 15:17:52;;;;;;;6.20;6.00;;;35.00;55.70;;;;;;4937968;29;20900;-71
2021/06/17 15:20:20;;;;;;;6.20;5.90;;;35.00;55.90;;;;;;4938832;29;20479;-69
2021/06/17 15:22:47;;;;;;;5.37;5.10;;;34.90;56.80;;;;;;4936349;29;20471;-69
2021/06/17 15:25:14;;;;;;;5.90;5.73;;;35.00;56.70;;;;;;4937962;29;20478;-69
2021/06/17 15:27:41;;;;;;;5.27;5.17;;;34.90;56.50;;;;;;4937295;29;20463;-68
2021/06/17 15:30:09;;;;;;;5.27;5.03;;;34.90;55.70;;;;;;4937278;29;20786;-68
2021/06/17 15:32:36;;;;;;;5.10;5.00;;;34.80;55.60;;;;;;4937022;29;20477;-69
2021/06/17 15:35:03;;;;;;;5.10;4.80;;;34.80;55.50;;;;;;4938841;29;20503;-70
2021/06/17 15:37:31;;;;;;;5.40;5.20;;;34.90;55.30;;;;;;4938978;29;20475;-69
2021/06/17 15:39:58;;;;;;;4.57;4.47;;;34.90;53.90;;;;;;4935637;29;20480;-69
2021/06/17 15:42:24;;;;;;;4.90;4.80;;;34.80;53.60;;;;;;4917857;29;20500;-69
2021/06/17 15:44:51;;;;;;;4.73;4.63;;;34.90;53.10;;;;;;4918010;29;20465;-69
2021/06/17 15:47:18;;;;;;;5.10;4.80;;;34.80;53.30;;;;;;4917915;29;20475;-69
2021/06/17 15:49:44;;;;;;;4.77;4.33;;;34.90;52.70;;;;;;4918091;29;20460;-69
2021/06/17 15:52:11;;;;;;;5.20;4.87;;;34.90;53.10;;;;;;4916657;29;20494;-69
2021/06/17 15:54:39;;;;;;;4.50;4.30;;;34.90;52.80;;;;;;4917969;29;20479;-69
2021/06/17 15:57:07;;;;;;;4.17;4.07;;;34.90;52.60;;;;;;4917660;29;20468;-69
2021/06/17 15:59:34;;;;;;;4.73;4.60;;;34.90;52.90;;;;;;4918061;29;20476;-69
2021/06/17 16:02:01;;;;;;;4.43;4.27;;;34.90;52.20;;;;;;4917439;29;20492;-69
2021/06/17 16:04:28;;;;;;;5.03;4.73;;;34.90;51.90;;;;;;4917498;29;20466;-69
2021/06/17 16:06:54;;;;;;;4.30;4.20;;;35.00;52.30;;;;;;4916398;29;20480;-69
2021/06/17 16:09:21;;;;;;;4.87;4.67;;;35.10;52.80;;;;;;4917353;29;20478;-68
2021/06/17 16:11:49;;;;;;;4.50;4.40;;;35.10;52.00;;;;;;4917181;29;20488;-69
2021/06/17 16:14:16;;;;;;;4.77;4.67;;;34.90;52.40;;;;;;4929854;29;20825;-69
2021/06/17 16:16:42;;;;;;;3.83;3.83;;;35.00;53.60;;;;;;4936013;29;20549;-69
2021/06/17 16:19:09;;;;;;;5.03;4.93;;;34.90;51.90;;;;;;4936321;29;20511;-69
2021/06/17 16:21:36;;;;;;;4.43;4.07;;;34.80;51.90;;;;;;4935328;29;20491;-69
2021/06/17 16:24:03;;;;;;;4.00;4.00;;;34.70;50.90;;;;;;4935931;29;20497;-68
2021/06/17 16:26:29;;;;;;;4.60;4.20;;;34.60;51.50;;;;;;4935816;29;20472;-69
2021/06/17 16:28:57;;;;;;;4.23;4.10;;;34.70;51.90;;;;;;4936510;29;20461;-69
2021/06/17 16:31:24;;;;;;;4.53;4.43;;;34.70;50.90;;;;;;4935506;29;20483;-69
2021/06/17 16:33:51;;;;;;;4.10;4.00;;;34.60;50.50;;;;;;4935634;29;20471;-69
2021/06/17 16:36:18;;;;;;;4.00;3.90;;;34.50;50.80;;;;;;4934767;29;20883;-69
2021/06/17 16:38:45;;;;;;;4.53;4.43;;;34.50;51.30;;;;;;4935326;29;20486;-69
2021/06/17 16:41:12;;;;;;;4.40;4.30;;;34.60;51.10;;;;;;4935193;29;20554;-68
2021/06/17 16:43:39;;;;;;;4.40;4.30;;;34.50;51.00;;;;;;4934531;29;20469;-69
2021/06/17 16:46:07;;;;;;;4.70;4.50;;;34.40;51.70;;;;;;4935325;29;20819;-69
2021/06/17 16:48:33;;;;;;;4.00;3.90;;;34.40;51.50;;;;;;4935800;29;20473;-69
2021/06/17 16:51:00;;;;;;;4.70;4.60;;;34.30;51.30;;;;;;4934381;29;20579;-66
2021/06/17 16:53:27;;;;;;;4.93;4.83;;;34.30;51.80;;;;;;4935558;29;20467;-69
2021/06/17 16:55:53;;;;;;;4.10;4.00;;;34.20;52.00;;;;;;4935483;29;20477;-67
2021/06/17 16:58:23;;;;;;;4.53;4.40;;;34.30;52.30;;;;;;4935114;29;20483;-69